Latest Weather Observations for Nullarbor

IDS60801

Issued at 11:31 am CST Wednesday 24 May 2017 (issued every 30 minutes, with the page automatically refreshed every 10 minutes)

About weather observations | Map of weather stations | Latest weather observations for SA | Other Formats
Station Details ID: 018106 Name: NULLARBOR Lat: -31.45 Lon: 130.90 Height: 64.0 m
Data from the previous 72 hours. | See also: Recent months at Nullarbor
Date/Time
CST
Temp
°C
App
Temp
°C
Dew
Point
°C
Rel
Hum
%
Delta-T
°C
Wind Press
QNH
hPa
Press
MSL
hPa
Rain since
9am
mm
Dir  Spd
km/h
Gust
km/h
Spd
kts
Gust
kts
24/11:30am 19.2 15.9 4.6 38 7.0 NW 11 15 6 8 1024.4 1024.3 0.0
24/11:00am 18.2 14.9 4.7 41 6.4 NNW 11 17 6 9 1024.7 1024.6 0.0
24/10:30am 17.0 14.0 4.3 43 6.0 NNW 9 15 5 8 1024.8 1024.7 0.0
24/10:00am 15.2 12.0 4.9 50 4.9 NNW 11 13 6 7 1024.8 1024.7 0.0
24/09:30am 13.7 10.5 5.1 56 4.0 NNW 11 13 6 7 1024.7 1024.6 0.0
24/09:00am 11.0 7.4 5.1 67 2.7 NNW 13 17 7 9 1024.6 1024.5 0.0
24/08:30am 8.1 4.8 4.5 78 1.6 NNW 11 17 6 9 1024.3 1024.2 0.0
24/08:00am 5.0 1.1 3.5 90 0.6 N 13 17 7 9 1024.0 1023.9 0.0
24/07:30am 3.7 -0.4 2.4 91 0.5 NNW 13 15 7 8 1023.7 1023.6 0.0
24/07:00am 4.3 0.3 3.0 91 0.5 NNW 13 15 7 8 1023.6 1023.5 0.0
24/06:30am 4.6 0.7 3.3 91 0.5 NNW 13 15 7 8 1023.4 1023.3 0.0
24/06:00am 5.2 1.4 3.7 90 0.6 NNW 13 17 7 9 1023.1 1023.0 0.0
24/05:30am 5.7 1.5 4.0 89 0.7 NNW 15 17 8 9 1023.1 1023.0 0.0
24/05:00am 5.9 1.4 4.2 89 0.7 NNW 17 19 9 10 1023.1 1023.0 0.0
24/04:30am 5.6 1.4 3.9 89 0.7 NNW 15 17 8 9 1022.9 1022.9 0.0
24/04:00am 5.7 1.6 4.2 90 0.6 NNW 15 17 8 9 1022.9 1022.9 0.0
24/03:30am 5.7 1.6 4.3 91 0.6 NNW 15 17 8 9 1023.1 1023.0 0.0
24/03:00am 5.5 1.8 4.2 91 0.6 NNW 13 15 7 8 1023.1 1023.0 0.0
24/02:30am 5.5 1.8 4.3 92 0.5 NNW 13 15 7 8 1023.2 1023.1 0.0
24/02:00am 6.2 2.6 5.2 93 0.4 N 13 15 7 8 1023.3 1023.2 0.0
24/01:30am 6.7 3.3 5.7 93 0.4 NNW 13 15 7 8 1023.4 1023.3 0.0
24/01:00am 7.3 4.0 6.6 95 0.3 N 13 15 7 8 1023.3 1023.2 0.0
24/12:30am 7.0 3.6 5.9 93 0.5 N 13 15 7 8 1023.3 1023.2 0.0
24/12:00am 7.1 3.3 5.7 91 0.6 N 15 17 8 9 1023.5 1023.4 0.0
 
Date/Time
CST
Temp
°C
App
Temp
°C
Dew
Point
°C
Rel
Hum
%
Delta-T
°C
Wind Press
QNH
hPa
Press
MSL
hPa
Rain since
9am
mm
Dir  Spd
km/h
Gust
km/h
Spd
kts
Gust
kts
23/11:30pm 7.3 3.8 5.6 89 0.8 N 13 15 7 8 1023.5 1023.4 0.0
23/11:00pm 7.6 4.2 5.9 89 0.8 N 13 15 7 8 1023.4 1023.3 0.0
23/10:30pm 7.6 3.8 5.6 87 0.9 NNW 15 17 8 9 1023.4 1023.3 0.0
23/10:00pm 7.7 3.8 5.3 85 1.1 NNW 15 17 8 9 1023.3 1023.2 0.0
23/09:30pm 8.0 5.8 5.3 83 1.2 NNW 6 9 3 5 1023.3 1023.2 0.0
23/09:00pm 8.3 5.6 5.8 84 1.1 NNW 9 11 5 6 1023.1 1023.0 0.0
23/08:30pm 9.7 7.5 6.2 79 1.6 WNW 7 9 4 5 1022.8 1022.8 0.0
23/08:00pm 11.3 8.9 7.0 75 2.1 W 9 9 5 5 1022.5 1022.5 0.0
23/07:30pm 12.2 8.9 7.9 75 2.1 SW 15 15 8 8 1022.2 1022.2 0.0
23/07:00pm 13.7 11.2 8.3 70 2.7 SW 11 13 6 7 1022.0 1022.0 0.0
23/06:30pm 14.3 12.1 7.8 65 3.2 SW 9 11 5 6 1021.8 1021.8 0.0
23/06:00pm 15.4 12.0 7.7 60 3.8 SW 15 17 8 9 1021.5 1021.5 0.0
23/05:30pm 17.1 12.5 6.3 49 5.3 SW 20 24 11 13 1021.2 1021.2 0.0
23/05:00pm 18.3 13.5 5.5 43 6.2 WSW 20 28 11 15 1020.9 1020.9 0.0
23/04:30pm 18.8 13.7 6.0 43 6.3 WSW 22 30 12 16 1020.7 1020.7 0.0
23/04:00pm 18.8 13.4 6.3 44 6.2 SW 24 32 13 17 1020.6 1020.6 0.0
23/03:30pm 19.8 14.9 1.7 30 8.3 W 17 22 9 12 1020.5 1020.5 0.0
23/03:00pm 19.9 14.5 2.3 31 8.1 W 20 33 11 18 1020.5 1020.5 0.0
23/02:30pm 19.3 13.5 2.2 32 7.8 WNW 22 32 12 17 1020.5 1020.5 0.0
23/02:00pm 19.4 13.7 2.7 33 7.8 W 22 32 12 17 1020.6 1020.6 0.0
23/01:30pm 18.9 13.2 3.1 35 7.4 WNW 22 30 12 16 1020.9 1020.9 0.0
23/01:00pm 18.6 13.1 4.0 38 6.9 WNW 22 37 12 20 1021.2 1021.2 0.0
23/12:30pm 18.1 12.7 4.3 40 6.5 WNW 22 32 12 17 1021.7 1021.7 0.0
23/12:00pm 17.8 12.0 4.4 41 6.3 WNW 24 33 13 18 1021.9 1021.9 0.0
23/11:30am 16.8 11.0 4.2 43 5.9 WNW 24 32 13 17 1022.2 1022.2 0.0
23/11:00am 16.1 10.1 3.5 43 5.8 WNW 24 32 13 17 1022.3 1022.3 0.0
23/10:30am 15.1 9.1 3.6 46 5.2 WNW 24 32 13 17 1022.3 1022.3 0.0
23/10:00am 13.6 8.0 3.7 51 4.5 WNW 22 32 12 17 1022.3 1022.3 0.0
23/09:30am 11.1 5.4 2.9 57 3.6 WNW 22 28 12 15 1022.2 1022.2 0.0
23/09:00am 9.4 4.3 3.2 65 2.7 NW 19 24 10 13 1022.0 1022.0 0.0
23/08:30am 6.4 2.3 2.1 74 1.7 NW 13 20 7 11 1021.7 1021.7 0.0
23/08:00am 3.8 -0.9 1.0 82 1.1 NNW 15 17 8 9 1021.3 1021.3 0.0
23/07:30am 2.3 -2.5 -0.1 84 0.9 NNW 15 19 8 10 1021.2 1021.2 0.0
23/07:00am 2.9 -1.5 0.3 83 1.0 NW 13 17 7 9 1020.9 1020.9 0.0
23/06:30am 3.4 -0.9 0.8 83 1.0 NW 13 15 7 8 1020.6 1020.6 0.0
23/06:00am 3.6 -0.7 1.2 84 0.9 NW 13 17 7 9 1020.3 1020.3 0.0
23/05:30am 3.7 -1.0 1.1 83 1.0 NW 15 17 8 9 1020.2 1020.2 0.0
23/05:00am 3.2 -1.5 0.6 83 1.0 NW 15 17 8 9 1019.9 1019.9 0.0
23/04:30am 3.3 -1.1 0.5 82 1.1 NW 13 17 7 9 1019.7 1019.7 0.0
23/04:00am 3.8 -0.5 1.0 82 1.1 NW 13 17 7 9 1019.6 1019.6 0.0
23/03:30am 3.9 -0.4 0.9 81 1.2 NW 13 17 7 9 1019.6 1019.6 0.0
23/03:00am 4.3 0.1 1.5 82 1.1 NW 13 17 7 9 1019.5 1019.5 0.0
23/02:30am 4.4 -0.1 2.1 85 0.9 NW 15 17 8 9 1019.6 1019.6 0.0
23/02:00am 4.1 0.0 2.5 89 0.6 NW 13 15 7 8 1019.9 1019.9 0.0
23/01:30am 5.1 1.7 3.8 91 0.5 NW 11 13 6 7 1020.0 1020.0 0.0
23/01:00am 5.6 2.3 4.6 93 0.4 NW 11 13 6 7 1020.2 1020.2 0.0
23/12:30am 5.4 1.6 3.9 90 0.6 NW 13 15 7 8 1020.3 1020.3 0.0
23/12:00am 6.3 2.6 4.6 89 0.7 WNW 13 15 7 8 1020.2 1020.2 0.0
 
Date/Time
CST
Temp
°C
App
Temp
°C
Dew
Point
°C
Rel
Hum
%
Delta-T
°C
Wind Press
QNH
hPa
Press
MSL
hPa
Rain since
9am
mm
Dir  Spd
km/h
Gust
km/h
Spd
kts
Gust
kts
22/11:30pm 6.7 3.1 5.0 89 0.7 WNW 13 13 7 7 1020.3 1020.3 0.0
22/11:00pm 6.8 2.8 4.8 87 0.9 NW 15 17 8 9 1020.5 1020.5 0.0
22/10:30pm 7.2 3.6 4.9 85 1.0 NW 13 17 7 9 1020.3 1020.3 0.0
22/10:00pm 7.5 3.9 5.0 84 1.1 NW 13 15 7 8 1020.0 1020.0 0.0
22/09:30pm 8.2 4.6 5.0 80 1.4 WNW 13 13 7 7 1019.7 1019.7 0.0
22/09:00pm 9.1 5.9 5.1 76 1.8 WNW 11 13 6 7 1019.5 1019.5 0.0
22/08:30pm 10.0 6.6 5.8 75 1.9 W 13 15 7 8 1019.1 1019.1 0.0
22/08:00pm 11.0 7.3 6.4 73 2.2 W 15 17 8 9 1018.7 1018.7 0.0
22/07:30pm 11.9 8.2 6.4 69 2.6 W 15 17 8 9 1018.1 1018.1 0.0
22/07:00pm 12.8 9.0 5.7 62 3.3 WSW 15 17 8 9 1017.6 1017.6 0.0
22/06:30pm 14.2 11.1 5.6 56 4.1 WSW 11 13 6 7 1016.9 1016.9 0.0
22/06:00pm 15.7 11.5 5.9 52 4.7 WSW 17 22 9 12 1016.8 1016.8 0.0
22/05:30pm 17.1 11.6 5.7 47 5.5 WSW 24 30 13 16 1016.5 1016.4 0.0
22/05:00pm 18.0 12.1 5.6 44 6.1 WSW 26 35 14 19 1016.0 1015.9 0.0
22/04:30pm 18.5 12.4 6.4 45 6.0 WSW 28 39 15 21 1015.7 1015.6 0.0
22/04:00pm 18.8 13.3 9.0 53 5.1 WSW 28 41 15 22 1015.4 1015.3 0.0
22/03:30pm 19.1 13.6 10.6 58 4.6 WSW 30 39 16 21 1015.1 1015.0 0.0
22/03:00pm 19.2 13.5 11.3 60 4.3 WSW 32 41 17 22 1014.9 1014.8 0.0
22/02:30pm 19.1 13.6 10.6 58 4.6 WSW 30 39 16 21 1014.7 1014.6 0.0
22/02:00pm 19.1 13.4 11.2 60 4.3 WSW 32 41 17 22 1014.6 1014.5 0.0
22/01:30pm 19.8 14.4 11.0 57 4.8 WSW 30 39 16 21 1014.4 1014.3 0.0
22/01:00pm 20.3 15.8 11.5 57 4.9 WSW 26 35 14 19 1014.6 1014.5 0.0
22/12:30pm 20.5 16.4 11.4 56 5.0 WSW 24 33 13 18 1014.5 1014.4 0.0
22/12:00pm 20.9 16.3 9.5 48 6.1 W 24 35 13 19 1014.6 1014.5 0.0
22/11:30am 20.4 16.6 11.1 55 5.1 WSW 22 32 12 17 1014.8 1014.7 0.0
22/11:00am 19.7 17.2 10.9 57 4.8 WSW 15 22 8 12 1014.6 1014.5 0.0
22/10:30am 18.9 17.0 11.9 64 3.9 WSW 13 26 7 14 1014.6 1014.5 0.0
22/10:00am 17.7 16.7 13.4 76 2.4 W 11 15 6 8 1014.4 1014.3 0.0
22/09:30am 17.1 16.7 14.2 83 1.7 W 9 13 5 7 1014.2 1014.1 0.0
22/09:00am 16.1 15.8 14.3 89 1.0 W 9 11 5 6 1013.7 1013.6 0.0
22/08:30am 15.5 15.4 13.9 90 0.9 WSW 7 11 4 6 1013.2 1013.1 0.0
22/08:00am 15.8 15.0 14.0 89 1.0 SW 11 15 6 8 1012.7 1012.6 0.0
22/07:30am 16.3 13.2 14.5 89 1.0 WSW 24 32 13 17 1012.6 1012.5 0.0
22/07:00am 16.7 12.5 15.6 93 0.6 SW 32 43 17 23 1011.3 1011.2 0.0
22/06:30am 16.1 12.7 13.6 85 1.4 WSW 24 35 13 19 1010.9 1010.8 0.0
22/06:00am 14.2 10.1 7.7 65 3.2 W 19 26 10 14 1010.4 1010.3 0.0
22/05:30am 15.1 10.0 4.2 48 5.1 WNW 20 26 11 14 1009.8 1009.7 0.0
22/05:00am 14.7 10.3 2.6 44 5.4 NW 15 22 8 12 1009.1 1009.0 0.0
22/04:30am 13.7 8.8 2.3 46 5.0 NNW 17 20 9 11 1008.3 1008.2 0.0
22/04:00am 13.1 7.8 2.1 47 4.8 N 19 20 10 11 1008.0 1007.9 0.0
22/03:30am 13.1 8.2 2.1 47 4.8 NNW 17 20 9 11 1008.2 1008.1 0.0
22/03:00am 13.1 8.0 2.9 50 4.5 WNW 19 28 10 15 1008.4 1008.3 0.0
22/02:30am 12.8 7.5 2.9 51 4.4 N 20 33 11 18 1008.5 1008.4 0.0
22/02:00am 12.7 7.6 3.1 52 4.3 N 19 20 10 11 1008.0 1007.9 0.0
22/01:30am 12.6 7.9 3.3 53 4.2 N 17 19 9 10 1008.2 1008.1 0.0
22/01:00am 12.5 8.7 3.7 55 4.0 NNE 13 17 7 9 1008.5 1008.4 0.0
22/12:30am 14.0 9.4 3.8 50 4.7 NNE 17 19 9 10 1008.7 1008.6 0.0
22/12:00am 12.8 7.9 4.0 55 4.0 NNE 19 20 10 11 1008.9 1008.8 0.0
 
Date/Time
CST
Temp
°C
App
Temp
°C
Dew
Point
°C
Rel
Hum
%
Delta-T
°C
Wind Press
QNH
hPa
Press
MSL
hPa
Rain since
9am
mm
Dir  Spd
km/h
Gust
km/h
Spd
kts
Gust
kts
21/11:30pm 12.8 8.3 4.0 55 4.0 N 17 19 9 10 1009.2 1009.1 0.0
21/11:00pm 11.8 7.3 4.3 60 3.4 NNE 17 19 9 10 1009.5 1009.4 0.0
21/10:30pm 12.5 7.7 4.5 58 3.7 N 19 20 10 11 1009.7 1009.6 0.0
21/10:00pm 13.8 9.3 4.1 52 4.4 N 17 19 9 10 1009.7 1009.6 0.0
21/09:30pm 14.5 10.3 3.9 49 4.9 N 15 19 8 10 1009.8 1009.7 0.0
21/09:00pm 15.2 12.1 3.4 45 5.4 NNW 9 11 5 6 1009.7 1009.6 0.0
21/08:30pm 16.8 12.1 3.1 40 6.3 NNW 17 19 9 10 1009.6 1009.5 0.0
21/08:00pm 18.6 14.2 2.9 35 7.3 NNW 15 17 8 9 1009.5 1009.4 0.0
21/07:30pm 17.3 13.4 3.2 39 6.5 N 13 15 7 8 1009.4 1009.3 0.0
21/07:00pm 18.6 15.0 2.9 35 7.3 N 11 11 6 6 1009.1 1009.0 0.0
21/06:30pm 18.9 14.8 2.3 33 7.6 N 13 15 7 8 1009.0 1008.9 0.0
21/06:00pm 21.0 16.6 2.8 30 8.6 N 15 17 8 9 1008.8 1008.7 0.0
21/05:30pm 25.2 20.2 1.3 21 11.3 NNW 17 22 9 12 1008.6 1008.5 0.0
21/05:00pm 27.0 20.8 -0.1 17 12.7 NNW 22 30 12 16 1008.6 1008.5 0.0
21/04:30pm 27.7 21.7 1.2 18 12.8 NNW 22 39 12 21 1008.5 1008.4 0.0
21/04:00pm 27.8 20.6 0.5 17 13.0 N 28 35 15 19 1008.5 1008.4 0.0
21/03:30pm 27.9 21.1 0.6 17 13.0 NNW 26 37 14 20 1008.5 1008.4 0.0
21/03:00pm 28.0 21.8 2.2 19 12.7 N 24 32 13 17 1008.6 1008.5 0.0
21/02:30pm 27.6 21.5 2.6 20 12.3 N 24 32 13 17 1008.8 1008.7 0.0
21/02:00pm 27.4 21.3 2.5 20 12.2 N 24 35 13 19 1009.3 1009.2 0.0
21/01:30pm 26.8 21.3 4.0 23 11.5 N 22 32 12 17 1010.0 1009.9 0.0
21/01:00pm 26.5 21.6 4.9 25 11.0 N 20 32 11 17 1010.5 1010.4 0.0
21/12:30pm 25.8 21.1 5.9 28 10.3 N 20 28 11 15 1011.2 1011.1 0.0
21/12:00pm 24.0 19.5 6.3 32 9.1 N 19 24 10 13 1011.8 1011.7 0.0

Other Formats:

Comma delimited format used in spreadsheet applications
http://www.bom.gov.au/fwo/IDS60801/IDS60801.94651.axf

JavaScript Object Notation format (JSON) in row-major order
http://www.bom.gov.au/fwo/IDS60801/IDS60801.94651.json